sensor_id;sensor_type;location;lat;lon;timestamp;pressure;altitude;pressure_sealevel;temperature;humidity
35489;BME280;21602;55.670;37.578;2023-01-25T00:02:13;100700.97;;;0.42;82.29
35489;BME280;21602;55.670;37.578;2023-01-25T00:04:39;100700.28;;;0.40;81.98
35489;BME280;21602;55.670;37.578;2023-01-25T00:07:05;100688.81;;;0.41;81.68
35489;BME280;21602;55.670;37.578;2023-01-25T00:09:30;100685.19;;;0.42;81.43
35489;BME280;21602;55.670;37.578;2023-01-25T00:11:56;100682.88;;;0.39;80.87
35489;BME280;21602;55.670;37.578;2023-01-25T00:14:23;100682.31;;;0.36;81.15
35489;BME280;21602;55.670;37.578;2023-01-25T00:16:49;100685.31;;;0.31;80.75
35489;BME280;21602;55.670;37.578;2023-01-25T00:19:15;100675.09;;;0.28;81.02
35489;BME280;21602;55.670;37.578;2023-01-25T00:21:40;100682.84;;;0.30;81.30
35489;BME280;21602;55.670;37.578;2023-01-25T00:24:07;100682.13;;;0.28;80.44
35489;BME280;21602;55.670;37.578;2023-01-25T00:26:34;100682.84;;;0.30;80.71
35489;BME280;21602;55.670;37.578;2023-01-25T00:29:00;100677.28;;;0.23;80.14
35489;BME280;21602;55.670;37.578;2023-01-25T00:39:42;100665.31;;;-0.01;80.25
35489;BME280;21602;55.670;37.578;2023-01-25T00:42:11;100671.97;;;0.04;79.38
35489;BME280;21602;55.670;37.578;2023-01-25T00:44:38;100664.00;;;0.05;79.52
35489;BME280;21602;55.670;37.578;2023-01-25T00:47:04;100657.03;;;0.04;79.74
35489;BME280;21602;55.670;37.578;2023-01-25T00:49:30;100660.78;;;0.02;79.74
35489;BME280;21602;55.670;37.578;2023-01-25T00:51:57;100652.50;;;0.06;80.02
35489;BME280;21602;55.670;37.578;2023-01-25T00:54:24;100646.84;;;0.11;79.43
35489;BME280;21602;55.670;37.578;2023-01-25T00:56:50;100641.88;;;0.17;79.81
35489;BME280;21602;55.670;37.578;2023-01-25T00:59:22;100639.97;;;0.19;79.30
35489;BME280;21602;55.670;37.578;2023-01-25T01:01:49;100638.84;;;0.22;79.54
35489;BME280;21602;55.670;37.578;2023-01-25T01:04:16;100634.75;;;0.29;79.70
35489;BME280;21602;55.670;37.578;2023-01-25T01:06:43;100642.75;;;0.37;79.41
35489;BME280;21602;55.670;37.578;2023-01-25T01:09:16;100635.28;;;0.42;78.71
35489;BME280;21602;55.670;37.578;2023-01-25T01:11:43;100642.22;;;0.43;78.82
35489;BME280;21602;55.670;37.578;2023-01-25T01:14:09;100641.81;;;0.38;78.08
35489;BME280;21602;55.670;37.578;2023-01-25T01:16:36;100633.06;;;0.28;78.23
35489;BME280;21602;55.670;37.578;2023-01-25T01:19:02;100618.66;;;0.13;78.32
35489;BME280;21602;55.670;37.578;2023-01-25T01:21:28;100625.28;;;0.07;78.90
35489;BME280;21602;55.670;37.578;2023-01-25T01:23:55;100628.84;;;-0.04;79.51
35489;BME280;21602;55.670;37.578;2023-01-25T01:26:21;100623.03;;;-0.07;79.74
35489;BME280;21602;55.670;37.578;2023-01-25T01:28:48;100623.84;;;-0.07;80.08
35489;BME280;21602;55.670;37.578;2023-01-25T01:31:16;100621.81;;;-0.03;80.46
35489;BME280;21602;55.670;37.578;2023-01-25T01:33:53;100622.22;;;0.02;80.19
35489;BME280;21602;55.670;37.578;2023-01-25T01:36:23;100612.81;;;-0.01;80.24
35489;BME280;21602;55.670;37.578;2023-01-25T01:38:49;100612.00;;;-0.01;80.18
35489;BME280;21602;55.670;37.578;2023-01-25T01:41:15;100606.88;;;-0.03;80.09
35489;BME280;21602;55.670;37.578;2023-01-25T01:43:42;100598.19;;;-0.03;80.22
35489;BME280;21602;55.670;37.578;2023-01-25T01:46:22;100590.88;;;0.01;80.33
35489;BME280;21602;55.670;37.578;2023-01-25T01:51:46;100605.09;;;0.08;80.40
35489;BME280;21602;55.670;37.578;2023-01-25T01:54:37;100606.06;;;0.07;80.50
35489;BME280;21602;55.670;37.578;2023-01-25T01:57:15;100600.13;;;0.05;80.54
35489;BME280;21602;55.670;37.578;2023-01-25T01:59:56;100587.28;;;0.02;80.61
35489;BME280;21602;55.670;37.578;2023-01-25T02:02:24;100581.06;;;0.03;80.77
35489;BME280;21602;55.670;37.578;2023-01-25T02:04:59;100586.88;;;0.06;80.92
35489;BME280;21602;55.670;37.578;2023-01-25T02:07:32;100584.66;;;0.11;80.78
35489;BME280;21602;55.670;37.578;2023-01-25T02:09:59;100586.47;;;0.11;80.88
35489;BME280;21602;55.670;37.578;2023-01-25T02:12:26;100578.28;;;0.04;80.85
35489;BME280;21602;55.670;37.578;2023-01-25T02:14:53;100582.59;;;0.05;80.74
35489;BME280;21602;55.670;37.578;2023-01-25T02:17:35;100579.41;;;0.02;81.00
35489;BME280;21602;55.670;37.578;2023-01-25T02:20:23;100587.00;;;0.05;80.99
35489;BME280;21602;55.670;37.578;2023-01-25T02:25:23;100595.72;;;0.05;80.98
35489;BME280;21602;55.670;37.578;2023-01-25T02:30:42;100589.78;;;0.13;81.08
35489;BME280;21602;55.670;37.578;2023-01-25T02:33:08;100594.63;;;0.17;81.03
35489;BME280;21602;55.670;37.578;2023-01-25T02:35:50;100588.53;;;0.17;81.09
35489;BME280;21602;55.670;37.578;2023-01-25T02:38:19;100592.28;;;0.14;81.30
35489;BME280;21602;55.670;37.578;2023-01-25T02:41:07;100592.53;;;0.11;81.62
35489;BME280;21602;55.670;37.578;2023-01-25T02:43:34;100589.91;;;0.11;81.71
35489;BME280;21602;55.670;37.578;2023-01-25T02:46:22;100591.84;;;0.19;81.99
35489;BME280;21602;55.670;37.578;2023-01-25T02:48:50;100589.66;;;0.24;81.59
35489;BME280;21602;55.670;37.578;2023-01-25T02:51:16;100592.72;;;0.29;81.34
35489;BME280;21602;55.670;37.578;2023-01-25T02:53:42;100593.25;;;0.33;81.31
35489;BME280;21602;55.670;37.578;2023-01-25T02:56:07;100603.50;;;0.36;81.46
35489;BME280;21602;55.670;37.578;2023-01-25T02:58:33;100597.16;;;0.38;80.97
35489;BME280;21602;55.670;37.578;2023-01-25T03:01:00;100599.78;;;0.38;80.89
35489;BME280;21602;55.670;37.578;2023-01-25T03:03:26;100594.38;;;0.30;80.68
35489;BME280;21602;55.670;37.578;2023-01-25T03:05:53;100593.25;;;0.23;80.78
35489;BME280;21602;55.670;37.578;2023-01-25T03:08:18;100595.75;;;0.15;81.15
35489;BME280;21602;55.670;37.578;2023-01-25T03:10:47;100602.06;;;0.03;81.51
35489;BME280;21602;55.670;37.578;2023-01-25T03:13:13;100595.41;;;-0.02;81.67
35489;BME280;21602;55.670;37.578;2023-01-25T03:15:39;100598.03;;;-0.02;81.78
35489;BME280;21602;55.670;37.578;2023-01-25T03:18:05;100592.78;;;-0.02;81.78
35489;BME280;21602;55.670;37.578;2023-01-25T03:20:31;100589.06;;;0.01;82.00
35489;BME280;21602;55.670;37.578;2023-01-25T03:22:57;100575.81;;;0.03;81.90
35489;BME280;21602;55.670;37.578;2023-01-25T03:25:23;100574.16;;;0.02;81.93
35489;BME280;21602;55.670;37.578;2023-01-25T03:27:57;100567.66;;;0.06;81.89
35489;BME280;21602;55.670;37.578;2023-01-25T03:30:23;100578.69;;;0.09;81.65
35489;BME280;21602;55.670;37.578;2023-01-25T03:32:49;100576.06;;;0.09;81.97
35489;BME280;21602;55.670;37.578;2023-01-25T03:35:18;100565.03;;;0.06;82.04
35489;BME280;21602;55.670;37.578;2023-01-25T03:37:44;100565.72;;;0.08;82.11
35489;BME280;21602;55.670;37.578;2023-01-25T03:40:11;100565.72;;;0.08;82.00
35489;BME280;21602;55.670;37.578;2023-01-25T03:42:41;100554.25;;;0.09;82.19
35489;BME280;21602;55.670;37.578;2023-01-25T03:45:07;100557.59;;;0.11;82.27
35489;BME280;21602;55.670;37.578;2023-01-25T03:47:33;100563.50;;;0.13;82.34
35489;BME280;21602;55.670;37.578;2023-01-25T03:49:59;100564.22;;;0.15;82.17
35489;BME280;21602;55.670;37.578;2023-01-25T03:52:25;100573.03;;;0.14;82.21
35489;BME280;21602;55.670;37.578;2023-01-25T03:54:52;100573.91;;;0.14;82.40
35489;BME280;21602;55.670;37.578;2023-01-25T03:57:19;100582.19;;;0.10;82.50
35489;BME280;21602;55.670;37.578;2023-01-25T03:59:53;100567.09;;;0.02;82.51
35489;BME280;21602;55.670;37.578;2023-01-25T04:02:19;100565.28;;;-0.07;82.73
35489;BME280;21602;55.670;37.578;2023-01-25T04:04:45;100571.38;;;-0.07;82.81
35489;BME280;21602;55.670;37.578;2023-01-25T04:07:15;100578.84;;;-0.02;83.01
35489;BME280;21602;55.670;37.578;2023-01-25T04:09:41;100580.22;;;0.02;83.12
35489;BME280;21602;55.670;37.578;2023-01-25T04:12:08;100578.84;;;0.08;82.87
35489;BME280;21602;55.670;37.578;2023-01-25T04:14:36;100580.25;;;0.12;83.07
35489;BME280;21602;55.670;37.578;2023-01-25T04:17:04;100561.88;;;0.12;82.90
35489;BME280;21602;55.670;37.578;2023-01-25T04:19:37;100555.53;;;0.14;82.93
35489;BME280;21602;55.670;37.578;2023-01-25T04:22:04;100563.50;;;0.13;82.95
35489;BME280;21602;55.670;37.578;2023-01-25T04:24:34;100560.06;;;0.03;83.06
35489;BME280;21602;55.670;37.578;2023-01-25T04:27:01;100558.66;;;-0.02;83.15
35489;BME280;21602;55.670;37.578;2023-01-25T04:29:29;100558.22;;;-0.07;83.38
35489;BME280;21602;55.670;37.578;2023-01-25T04:31:56;100559.47;;;-0.11;83.77
35489;BME280;21602;55.670;37.578;2023-01-25T04:34:22;100566.25;;;-0.08;83.56
35489;BME280;21602;55.670;37.578;2023-01-25T04:36:48;100570.69;;;-0.09;83.68
35489;BME280;21602;55.670;37.578;2023-01-25T04:39:15;100569.44;;;-0.05;83.47
35489;BME280;21602;55.670;37.578;2023-01-25T04:41:41;100574.53;;;-0.13;83.68
35489;BME280;21602;55.670;37.578;2023-01-25T04:44:07;100574.94;;;-0.17;83.39
35489;BME280;21602;55.670;37.578;2023-01-25T04:46:34;100568.53;;;-0.24;83.83
35489;BME280;21602;55.670;37.578;2023-01-25T04:49:01;100571.56;;;-0.29;83.62
35489;BME280;21602;55.670;37.578;2023-01-25T04:51:26;100571.47;;;-0.28;83.78
35489;BME280;21602;55.670;37.578;2023-01-25T04:53:53;100581.56;;;-0.23;83.51
35489;BME280;21602;55.670;37.578;2023-01-25T04:56:19;100581.41;;;-0.21;83.66
35489;BME280;21602;55.670;37.578;2023-01-25T04:58:53;100577.41;;;-0.16;83.52
35489;BME280;21602;55.670;37.578;2023-01-25T05:01:20;100581.59;;;-0.13;83.26
35489;BME280;21602;55.670;37.578;2023-01-25T05:03:50;100584.47;;;-0.16;83.09
35489;BME280;21602;55.670;37.578;2023-01-25T05:06:30;100587.75;;;-0.24;83.23
35489;BME280;21602;55.670;37.578;2023-01-25T05:08:56;100591.47;;;-0.27;83.43
35489;BME280;21602;55.670;37.578;2023-01-25T05:11:22;100582.88;;;-0.29;83.68
35489;BME280;21602;55.670;37.578;2023-01-25T05:13:54;100580.28;;;-0.29;83.42
35489;BME280;21602;55.670;37.578;2023-01-25T05:16:27;100578.34;;;-0.27;83.26
35489;BME280;21602;55.670;37.578;2023-01-25T05:18:54;100578.75;;;-0.31;83.28
35489;BME280;21602;55.670;37.578;2023-01-25T05:21:25;100577.22;;;-0.34;83.57
35489;BME280;21602;55.670;37.578;2023-01-25T05:24:11;100579.84;;;-0.34;83.37
35489;BME280;21602;55.670;37.578;2023-01-25T05:26:37;100585.22;;;-0.35;83.55
35489;BME280;21602;55.670;37.578;2023-01-25T05:29:21;100590.47;;;-0.35;83.33
35489;BME280;21602;55.670;37.578;2023-01-25T05:32:16;100579.56;;;-0.40;83.46
35489;BME280;21602;55.670;37.578;2023-01-25T05:34:43;100592.41;;;-0.37;83.41
35489;BME280;21602;55.670;37.578;2023-01-25T05:37:12;100592.13;;;-0.34;83.19
35489;BME280;21602;55.670;37.578;2023-01-25T05:39:41;100583.03;;;-0.30;83.20
35489;BME280;21602;55.670;37.578;2023-01-25T05:42:11;100585.69;;;-0.20;82.76
35489;BME280;21602;55.670;37.578;2023-01-25T05:44:38;100594.56;;;-0.12;82.49
35489;BME280;21602;55.670;37.578;2023-01-25T05:47:05;100585.59;;;-0.09;82.35
35489;BME280;21602;55.670;37.578;2023-01-25T05:49:31;100578.81;;;-0.12;82.19
35489;BME280;21602;55.670;37.578;2023-01-25T05:51:57;100576.59;;;-0.16;82.05
35489;BME280;21602;55.670;37.578;2023-01-25T05:54:23;100572.31;;;-0.17;81.92
35489;BME280;21602;55.670;37.578;2023-01-25T05:56:57;100577.69;;;-0.19;81.82
35489;BME280;21602;55.670;37.578;2023-01-25T05:59:26;100570.09;;;-0.22;81.84
35489;BME280;21602;55.670;37.578;2023-01-25T06:01:52;100571.06;;;-0.23;81.67
35489;BME280;21602;55.670;37.578;2023-01-25T06:04:18;100573.69;;;-0.23;81.49
35489;BME280;21602;55.670;37.578;2023-01-25T06:06:44;100569.66;;;-0.27;81.17
35489;BME280;21602;55.670;37.578;2023-01-25T06:09:11;100575.47;;;-0.23;81.15
35489;BME280;21602;55.670;37.578;2023-01-25T06:11:37;100575.91;;;-0.18;81.08
35489;BME280;21602;55.670;37.578;2023-01-25T06:14:03;100574.25;;;-0.10;81.18
35489;BME280;21602;55.670;37.578;2023-01-25T06:16:29;100576.59;;;-0.07;80.96
35489;BME280;21602;55.670;37.578;2023-01-25T06:19:05;100581.03;;;-0.07;80.91
35489;BME280;21602;55.670;37.578;2023-01-25T06:21:51;100573.72;;;-0.13;80.98
35489;BME280;21602;55.670;37.578;2023-01-25T06:24:18;100576.34;;;-0.13;81.11
35489;BME280;21602;55.670;37.578;2023-01-25T06:26:44;100575.50;;;-0.14;80.98
35489;BME280;21602;55.670;37.578;2023-01-25T06:29:10;100569.41;;;-0.14;81.11
35489;BME280;21602;55.670;37.578;2023-01-25T06:31:35;100567.22;;;-0.19;80.79
35489;BME280;21602;55.670;37.578;2023-01-25T06:34:01;100573.53;;;-0.21;81.01
35489;BME280;21602;55.670;37.578;2023-01-25T06:36:31;100566.34;;;-0.19;81.30
35489;BME280;21602;55.670;37.578;2023-01-25T06:38:57;100563.88;;;-0.21;81.20
35489;BME280;21602;55.670;37.578;2023-01-25T06:41:22;100569.53;;;-0.16;81.25
35489;BME280;21602;55.670;37.578;2023-01-25T06:43:49;100573.13;;;-0.17;81.24
35489;BME280;21602;55.670;37.578;2023-01-25T06:46:16;100577.13;;;-0.22;81.43
35489;BME280;21602;55.670;37.578;2023-01-25T06:48:41;100576.84;;;-0.19;81.23
35489;BME280;21602;55.670;37.578;2023-01-25T06:51:09;100574.63;;;-0.24;81.22
35489;BME280;21602;55.670;37.578;2023-01-25T06:53:38;100572.84;;;-0.23;81.34
35489;BME280;21602;55.670;37.578;2023-01-25T06:56:16;100576.16;;;-0.21;81.24
35489;BME280;21602;55.670;37.578;2023-01-25T06:58:43;100582.25;;;-0.21;81.13
35489;BME280;21602;55.670;37.578;2023-01-25T07:01:22;100586.50;;;-0.20;80.86
35489;BME280;21602;55.670;37.578;2023-01-25T07:03:54;100588.19;;;-0.19;80.83
35489;BME280;21602;55.670;37.578;2023-01-25T07:06:20;100591.75;;;-0.20;80.81
35489;BME280;21602;55.670;37.578;2023-01-25T07:08:47;100586.50;;;-0.30;80.78
35489;BME280;21602;55.670;37.578;2023-01-25T07:11:13;100587.31;;;-0.29;80.88
35489;BME280;21602;55.670;37.578;2023-01-25T07:13:41;100580.84;;;-0.25;80.92
35489;BME280;21602;55.670;37.578;2023-01-25T07:16:11;100582.81;;;-0.17;80.92
35489;BME280;21602;55.670;37.578;2023-01-25T07:18:37;100579.47;;;-0.19;81.02
35489;BME280;21602;55.670;37.578;2023-01-25T07:21:05;100579.47;;;-0.19;81.50
35489;BME280;21602;55.670;37.578;2023-01-25T07:23:32;100572.31;;;-0.17;81.39
35489;BME280;21602;55.670;37.578;2023-01-25T07:25:59;100574.94;;;-0.17;81.39
35489;BME280;21602;55.670;37.578;2023-01-25T07:28:26;100572.16;;;-0.16;81.48
35489;BME280;21602;55.670;37.578;2023-01-25T07:30:53;100566.50;;;-0.21;81.63
35489;BME280;21602;55.670;37.578;2023-01-25T07:33:19;100574.91;;;-0.27;81.68
35489;BME280;21602;55.670;37.578;2023-01-25T07:35:46;100573.66;;;-0.33;81.83
35489;BME280;21602;55.670;37.578;2023-01-25T07:38:16;100569.63;;;-0.37;82.02
35489;BME280;21602;55.670;37.578;2023-01-25T07:40:42;100571.81;;;-0.42;82.17
35489;BME280;21602;55.670;37.578;2023-01-25T07:43:08;100574.16;;;-0.39;82.09
35489;BME280;21602;55.670;37.578;2023-01-25T07:45:35;100583.53;;;-0.46;82.44
35489;BME280;21602;55.670;37.578;2023-01-25T07:48:07;100576.50;;;-0.45;82.42
35489;BME280;21602;55.670;37.578;2023-01-25T07:50:36;100576.50;;;-0.45;82.64
35489;BME280;21602;55.670;37.578;2023-01-25T07:53:04;100575.28;;;-0.41;82.79
35489;BME280;21602;55.670;37.578;2023-01-25T07:55:31;100568.91;;;-0.39;82.66
35489;BME280;21602;55.670;37.578;2023-01-25T07:57:57;100565.22;;;-0.36;82.55
35489;BME280;21602;55.670;37.578;2023-01-25T08:00:23;100563.00;;;-0.31;82.37
35489;BME280;21602;55.670;37.578;2023-01-25T08:02:49;100565.63;;;-0.31;82.61
35489;BME280;21602;55.670;37.578;2023-01-25T08:05:15;100566.63;;;-0.22;82.27
35489;BME280;21602;55.670;37.578;2023-01-25T08:07:41;100558.91;;;-0.14;82.27
35489;BME280;21602;55.670;37.578;2023-01-25T08:10:08;100561.00;;;-0.08;82.09
35489;BME280;21602;55.670;37.578;2023-01-25T08:12:34;100565.44;;;-0.09;82.04
35489;BME280;21602;55.670;37.578;2023-01-25T08:15:00;100560.03;;;-0.07;82.21
35489;BME280;21602;55.670;37.578;2023-01-25T08:17:26;100564.72;;;-0.01;82.08
35489;BME280;21602;55.670;37.578;2023-01-25T08:19:56;100562.81;;;0.01;82.29
35489;BME280;21602;55.670;37.578;2023-01-25T08:22:23;100556.19;;;0.07;82.34
35489;BME280;21602;55.670;37.578;2023-01-25T08:24:49;100550.38;;;0.13;82.11
35489;BME280;21602;55.670;37.578;2023-01-25T08:27:15;100552.34;;;0.11;82.14
35489;BME280;21602;55.670;37.578;2023-01-25T08:29:41;100551.09;;;0.15;81.95
35489;BME280;21602;55.670;37.578;2023-01-25T08:32:07;100553.84;;;0.23;82.40
35489;BME280;21602;55.670;37.578;2023-01-25T08:34:33;100556.47;;;0.23;81.80
35489;BME280;21602;55.670;37.578;2023-01-25T08:36:59;100552.59;;;0.17;81.73
35489;BME280;21602;55.670;37.578;2023-01-25T08:39:25;100552.34;;;0.20;81.66
35489;BME280;21602;55.670;37.578;2023-01-25T08:41:51;100550.94;;;0.16;81.74
35489;BME280;21602;55.670;37.578;2023-01-25T08:44:17;100550.13;;;0.16;81.91
35489;BME280;21602;55.670;37.578;2023-01-25T08:46:49;100549.16;;;0.17;81.73
35489;BME280;21602;55.670;37.578;2023-01-25T08:49:14;100552.03;;;0.14;81.74
35489;BME280;21602;55.670;37.578;2023-01-25T08:51:40;100538.22;;;0.12;82.00
35489;BME280;21602;55.670;37.578;2023-01-25T08:54:11;100537.69;;;0.18;82.03
35489;BME280;21602;55.670;37.578;2023-01-25T08:56:38;100537.00;;;0.25;81.84
35489;BME280;21602;55.670;37.578;2023-01-25T08:59:05;100529.28;;;0.34;81.95
35489;BME280;21602;55.670;37.578;2023-01-25T09:01:32;100520.69;;;0.32;81.48
35489;BME280;21602;55.670;37.578;2023-01-25T09:03:58;100515.56;;;0.30;81.39
35489;BME280;21602;55.670;37.578;2023-01-25T09:06:24;100509.50;;;0.30;81.54
35489;BME280;21602;55.670;37.578;2023-01-25T09:08:49;100515.00;;;0.36;81.43
35489;BME280;21602;55.670;37.578;2023-01-25T09:11:18;100505.34;;;0.27;80.69
35489;BME280;21602;55.670;37.578;2023-01-25T09:13:44;100502.56;;;0.19;80.87
35489;BME280;21602;55.670;37.578;2023-01-25T09:16:13;100505.34;;;0.17;81.01
35489;BME280;21602;55.670;37.578;2023-01-25T09:18:41;100493.75;;;0.20;80.88
35489;BME280;21602;55.670;37.578;2023-01-25T09:21:16;100495.97;;;0.15;80.34
35489;BME280;21602;55.670;37.578;2023-01-25T09:23:43;100491.13;;;0.10;80.58
35489;BME280;21602;55.670;37.578;2023-01-25T09:26:10;100491.38;;;0.07;80.69
35489;BME280;21602;55.670;37.578;2023-01-25T09:28:36;100494.56;;;0.11;80.71
35489;BME280;21602;55.670;37.578;2023-01-25T09:31:05;100492.06;;;0.19;80.66
35489;BME280;21602;55.670;37.578;2023-01-25T09:33:53;100484.63;;;0.14;80.80
35489;BME280;21602;55.670;37.578;2023-01-25T09:36:19;100484.63;;;0.14;81.09
35489;BME280;21602;55.670;37.578;2023-01-25T09:38:45;100481.03;;;0.15;81.07
35489;BME280;21602;55.670;37.578;2023-01-25T09:52:45;100458.91;;;-0.02;81.78
35489;BME280;21602;55.670;37.578;2023-01-25T09:54:46;100448.97;;;-0.08;82.05
35489;BME280;21602;55.670;37.578;2023-01-25T09:57:19;100440.69;;;-0.13;82.31
35489;BME280;21602;55.670;37.578;2023-01-25T09:59:48;100442.59;;;-0.15;82.49
35489;BME280;21602;55.670;37.578;2023-01-25T10:02:34;100443.41;;;-0.14;82.66
35489;BME280;21602;55.670;37.578;2023-01-25T10:05:24;100437.75;;;-0.10;82.72
35489;BME280;21602;55.670;37.578;2023-01-25T10:08:04;100427.97;;;-0.08;82.62
35489;BME280;21602;55.670;37.578;2023-01-25T10:10:38;100430.31;;;-0.05;82.45
35489;BME280;21602;55.670;37.578;2023-01-25T10:13:11;100425.47;;;-0.09;82.42
35489;BME280;21602;55.670;37.578;2023-01-25T10:15:40;100416.22;;;-0.13;82.43
35489;BME280;21602;55.670;37.578;2023-01-25T10:18:19;100413.03;;;-0.17;82.74
35489;BME280;21602;55.670;37.578;2023-01-25T10:21:12;100398.78;;;-0.14;82.78
35489;BME280;21602;55.670;37.578;2023-01-25T10:26:51;100413.03;;;-0.17;82.20
35489;BME280;21602;55.670;37.578;2023-01-25T10:29:20;100415.53;;;-0.15;82.30
35489;BME280;21602;55.670;37.578;2023-01-25T10:31:51;100420.50;;;-0.12;82.21
35489;BME280;21602;55.670;37.578;2023-01-25T10:37:09;100413.19;;;-0.09;81.88
35489;BME280;21602;55.670;37.578;2023-01-25T10:39:43;100410.56;;;-0.09;81.60
35489;BME280;21602;55.670;37.578;2023-01-25T10:42:14;100426.84;;;-0.15;81.21
35489;BME280;21602;55.670;37.578;2023-01-25T10:44:41;100407.78;;;-0.17;80.86
35489;BME280;21602;55.670;37.578;2023-01-25T10:47:25;100395.91;;;-0.21;80.42
35489;BME280;21602;55.670;37.578;2023-01-25T10:49:56;100407.78;;;-0.17;80.50
35489;BME280;21602;55.670;37.578;2023-01-25T10:55:14;100391.22;;;-0.17;80.06
35489;BME280;21602;55.670;37.578;2023-01-25T10:57:42;100390.81;;;-0.13;79.92
35489;BME280;21602;55.670;37.578;2023-01-25T11:00:26;100387.06;;;-0.10;79.59
35489;BME280;21602;55.670;37.578;2023-01-25T11:02:53;100388.59;;;-0.08;79.83
35489;BME280;21602;55.670;37.578;2023-01-25T11:05:35;100381.53;;;-0.07;79.74
35489;BME280;21602;55.670;37.578;2023-01-25T11:10:53;100371.44;;;-0.02;78.80
35489;BME280;21602;55.670;37.578;2023-01-25T11:13:22;100375.47;;;-0.08;78.02
35489;BME280;21602;55.670;37.578;2023-01-25T11:15:51;100366.63;;;-0.26;77.46
35489;BME280;21602;55.670;37.578;2023-01-25T11:18:29;100372.84;;;-0.27;77.95
35489;BME280;21602;55.670;37.578;2023-01-25T11:21:25;100363.03;;;-0.25;78.26
35489;BME280;21602;55.670;37.578;2023-01-25T11:26:26;100357.53;;;-0.22;78.03
35489;BME280;21602;55.670;37.578;2023-01-25T11:29:21;100349.38;;;-0.19;77.91
35489;BME280;21602;55.670;37.578;2023-01-25T11:31:52;100348.00;;;-0.13;78.08
35489;BME280;21602;55.670;37.578;2023-01-25T11:34:23;100349.22;;;-0.08;78.12
35489;BME280;21602;55.670;37.578;2023-01-25T11:45:01;100330.94;;;0.10;76.69
35489;BME280;21602;55.670;37.578;2023-01-25T11:47:51;100326.56;;;-0.09;77.12
35489;BME280;21602;55.670;37.578;2023-01-25T11:53:23;100326.28;;;-0.25;77.22
35489;BME280;21602;55.670;37.578;2023-01-25T11:55:55;100332.13;;;-0.31;77.36
35489;BME280;21602;55.670;37.578;2023-01-25T12:06:55;100329.66;;;-0.42;77.58
35489;BME280;21602;55.670;37.578;2023-01-25T12:15:40;100333.22;;;-0.43;78.11
35489;BME280;21602;55.670;37.578;2023-01-25T12:21:07;100324.09;;;-0.30;77.95
35489;BME280;21602;55.670;37.578;2023-01-25T12:23:52;100322.84;;;-0.26;77.82
35489;BME280;21602;55.670;37.578;2023-01-25T12:26:44;100320.63;;;-0.20;77.70
35489;BME280;21602;55.670;37.578;2023-01-25T12:34:29;100325.06;;;-0.21;77.52
35489;BME280;21602;55.670;37.578;2023-01-25T12:36:59;100322.69;;;-0.24;77.74
35489;BME280;21602;55.670;37.578;2023-01-25T12:39:38;100323.00;;;-0.27;77.64
35489;BME280;21602;55.670;37.578;2023-01-25T12:42:14;100317.75;;;-0.27;77.73
35489;BME280;21602;55.670;37.578;2023-01-25T12:48:12;100318.00;;;-0.11;77.78
35489;BME280;21602;55.670;37.578;2023-01-25T12:50:41;100293.38;;;-0.10;77.53
35489;BME280;21602;55.670;37.578;2023-01-25T12:53:23;100303.22;;;-0.12;77.46
35489;BME280;21602;55.670;37.578;2023-01-25T12:55:50;100294.53;;;-0.12;77.59
35489;BME280;21602;55.670;37.578;2023-01-25T12:58:51;100287.75;;;-0.15;77.57
35489;BME280;21602;55.670;37.578;2023-01-25T13:04:52;100287.91;;;-0.26;77.92
35489;BME280;21602;55.670;37.578;2023-01-25T13:10:36;100297.16;;;-0.22;78.12
35489;BME280;21602;55.670;37.578;2023-01-25T13:13:21;100289.28;;;-0.12;78.24
35489;BME280;21602;55.670;37.578;2023-01-25T13:15:48;100284.03;;;-0.12;78.10
35489;BME280;21602;55.670;37.578;2023-01-25T13:20:54;100277.66;;;-0.10;78.02
35489;BME280;21602;55.670;37.578;2023-01-25T13:23:42;100271.72;;;-0.12;78.33
35489;BME280;21602;55.670;37.578;2023-01-25T13:28:50;100270.19;;;-0.05;78.15
35489;BME280;21602;55.670;37.578;2023-01-25T13:42:31;100232.06;;;-0.09;78.31
35489;BME280;21602;55.670;37.578;2023-01-25T13:45:01;100236.78;;;-0.12;78.70
35489;BME280;21602;55.670;37.578;2023-01-25T13:47:35;100230.56;;;-0.11;78.69
35489;BME280;21602;55.670;37.578;2023-01-25T13:50:26;100232.63;;;-0.15;78.84
35489;BME280;21602;55.670;37.578;2023-01-25T13:53:00;100215.22;;;-0.16;79.04
35489;BME280;21602;55.670;37.578;2023-01-25T13:55:27;100222.56;;;-0.19;79.10
35489;BME280;21602;55.670;37.578;2023-01-25T13:58:08;100219.41;;;-0.23;79.26
35489;BME280;21602;55.670;37.578;2023-01-25T14:00:34;100204.22;;;-0.29;79.65
35489;BME280;21602;55.670;37.578;2023-01-25T14:03:04;100201.59;;;-0.29;79.55
35489;BME280;21602;55.670;37.578;2023-01-25T14:05:31;100205.06;;;-0.38;79.97
35489;BME280;21602;55.670;37.578;2023-01-25T14:07:56;100201.09;;;-0.42;80.00
35489;BME280;21602;55.670;37.578;2023-01-25T14:10:24;100195.31;;;-0.46;80.47
35489;BME280;21602;55.670;37.578;2023-01-25T14:12:57;100191.97;;;-0.48;80.64
35489;BME280;21602;55.670;37.578;2023-01-25T14:15:30;100185.47;;;-0.44;80.82
35489;BME280;21602;55.670;37.578;2023-01-25T14:18:15;100188.00;;;-0.42;80.59
35489;BME280;21602;55.670;37.578;2023-01-25T14:20:45;100190.72;;;-0.44;80.82
35489;BME280;21602;55.670;37.578;2023-01-25T14:23:21;100183.28;;;-0.48;80.81
35489;BME280;21602;55.670;37.578;2023-01-25T14:25:47;100194.19;;;-0.53;80.87
35489;BME280;21602;55.670;37.578;2023-01-25T14:28:14;100190.19;;;-0.57;80.86
35489;BME280;21602;55.670;37.578;2023-01-25T14:30:40;100188.03;;;-0.62;80.94
35489;BME280;21602;55.670;37.578;2023-01-25T14:35:43;100197.16;;;-0.66;81.15
35489;BME280;21602;55.670;37.578;2023-01-25T14:41:58;100181.69;;;-0.79;81.58
35489;BME280;21602;55.670;37.578;2023-01-25T14:44:13;100175.91;;;-0.82;81.87
35489;BME280;21602;55.670;37.578;2023-01-25T14:46:40;100179.50;;;-0.83;82.20